createdAt,value
2018-11-28T00:00:02.633Z,53.47
2018-11-28T00:04:10.819Z,40.57
2018-11-28T00:08:19.550Z,39.53
2018-11-28T00:12:27.735Z,44.73
2018-11-28T00:16:35.953Z,39.20
2018-11-28T00:20:44.138Z,45.87
2018-11-28T00:24:52.525Z,40.30
2018-11-28T00:29:00.709Z,41.20
2018-11-28T00:33:08.900Z,39.37
2018-11-28T00:37:17.137Z,42.27
2018-11-28T00:41:25.348Z,37.77
2018-11-28T00:45:33.504Z,44.83
2018-11-28T00:49:41.687Z,37.03
2018-11-28T00:53:50.391Z,38.40
2018-11-28T00:57:58.575Z,42.77
2018-11-28T01:02:06.785Z,39.23
2018-11-28T01:06:14.965Z,39.87
2018-11-28T01:10:24.122Z,37.27
2018-11-28T01:14:32.316Z,40.63
2018-11-28T01:18:40.521Z,40.80
2018-11-28T01:22:49.106Z,39.50
2018-11-28T01:26:57.370Z,37.77
2018-11-28T01:31:06.351Z,35.27
2018-11-28T01:35:15.648Z,34.90
2018-11-28T01:39:23.839Z,35.77
2018-11-28T01:43:32.004Z,35.07
2018-11-28T01:47:40.164Z,36.57
2018-11-28T01:51:49.059Z,40.87
2018-11-28T01:55:57.225Z,44.53
2018-11-28T02:00:11.003Z,37.70
2018-11-28T02:04:19.724Z,35.03
2018-11-28T02:08:27.907Z,39.47
2018-11-28T02:12:36.132Z,44.13
2018-11-28T02:16:44.297Z,42.30
2018-11-28T02:20:52.546Z,45.37
2018-11-28T02:25:00.760Z,41.20
2018-11-28T02:29:08.964Z,38.30
2018-11-28T02:33:17.191Z,39.87
2018-11-28T02:37:25.410Z,33.57
2018-11-28T02:41:33.604Z,38.10
2018-11-28T02:45:41.790Z,39.13
2018-11-28T02:49:50.501Z,36.43
2018-11-28T02:53:58.708Z,35.27
2018-11-28T02:58:06.923Z,36.10
2018-11-28T03:02:15.117Z,52.33
2018-11-28T03:06:23.374Z,75.60
2018-11-28T03:10:31.593Z,38.37
2018-11-28T03:14:39.784Z,36.27
2018-11-28T03:18:48.131Z,42.63
2018-11-28T03:22:56.349Z,29.87
2018-11-28T03:27:04.572Z,36.30
2018-11-28T03:31:12.757Z,36.37
2018-11-28T03:35:21.934Z,36.43
2018-11-28T03:39:29.151Z,32.90
2018-11-28T03:43:37.323Z,47.10
2018-11-28T03:47:46.045Z,34.30
2018-11-28T03:51:54.262Z,32.60
2018-11-28T03:56:02.485Z,35.07
2018-11-28T04:00:13.024Z,39.87
2018-11-28T04:04:21.216Z,35.13
2018-11-28T04:08:29.421Z,38.67
2018-11-28T04:12:37.698Z,40.20
2018-11-28T04:16:46.192Z,33.33
2018-11-28T04:20:54.363Z,34.57
2018-11-28T04:25:02.531Z,41.87
2018-11-28T04:29:10.691Z,43.53
2018-11-28T04:33:19.105Z,35.23
2018-11-28T04:37:27.295Z,33.67
2018-11-28T04:41:35.486Z,34.50
2018-11-28T04:45:43.693Z,37.70
2018-11-28T04:49:51.895Z,41.10
2018-11-28T04:54:00.125Z,35.50
2018-11-28T04:58:08.315Z,34.67
2018-11-28T05:02:16.911Z,39.43
2018-11-28T05:06:37.061Z,37.27
2018-11-28T05:10:45.374Z,38.13
2018-11-28T05:14:53.587Z,40.53
2018-11-28T05:19:01.789Z,36.00
2018-11-28T05:23:09.979Z,41.83
2018-11-28T05:27:18.305Z,35.50
2018-11-28T05:31:26.572Z,34.17
2018-11-28T05:35:36.084Z,30.83
2018-11-28T05:39:44.575Z,32.67
2018-11-28T05:43:52.813Z,37.37
2018-11-28T05:48:00.991Z,32.73
2018-11-28T05:52:09.274Z,39.13
2018-11-28T05:56:17.788Z,35.73
2018-11-28T06:00:35.827Z,38.40
2018-11-28T06:04:44.054Z,35.13
2018-11-28T06:08:52.267Z,37.57
2018-11-28T06:13:00.467Z,34.40
2018-11-28T06:17:08.659Z,36.97
2018-11-28T06:21:17.326Z,30.17
2018-11-28T06:25:25.520Z,36.93
2018-11-28T06:29:33.724Z,35.23
2018-11-28T06:33:41.931Z,36.50
2018-11-28T06:37:50.313Z,35.90
2018-11-28T06:41:58.520Z,43.77
2018-11-28T06:46:06.754Z,34.20
2018-11-28T06:50:16.129Z,32.93
2018-11-28T06:54:24.304Z,34.10
2018-11-28T06:58:32.498Z,37.60
2018-11-28T07:02:40.887Z,37.50
2018-11-28T07:06:49.233Z,36.20
2018-11-28T07:10:57.451Z,38.17
2018-11-28T07:15:07.899Z,33.97
2018-11-28T07:19:16.510Z,35.20
2018-11-28T07:23:24.700Z,32.87
2018-11-28T07:27:33.010Z,28.93
2018-11-28T07:31:41.223Z,29.57
2018-11-28T07:35:49.543Z,33.30
2018-11-28T07:39:57.723Z,35.13
2018-11-28T07:44:05.960Z,31.00
2018-11-28T07:48:14.229Z,31.00
2018-11-28T07:52:22.501Z,27.10
2018-11-28T07:56:30.688Z,26.50
2018-11-28T08:00:39.151Z,27.00
2018-11-28T08:04:49.393Z,31.37
2018-11-28T08:08:58.600Z,30.77
2018-11-28T08:13:07.464Z,32.37
2018-11-28T08:17:15.815Z,29.67
2018-11-28T08:21:24.049Z,24.57
2018-11-28T08:25:32.603Z,23.20
2018-11-28T08:29:41.188Z,24.77
2018-11-28T08:33:49.528Z,25.07
2018-11-28T08:37:57.720Z,23.30
2018-11-28T08:42:06.128Z,20.93
2018-11-28T08:46:14.420Z,22.20
2018-11-28T08:50:26.750Z,22.40
2018-11-28T08:54:34.947Z,19.83
2018-11-28T08:58:43.428Z,22.77
2018-11-28T09:02:53.512Z,22.20
2018-11-28T09:07:01.711Z,21.50
2018-11-28T09:11:09.905Z,22.53
2018-11-28T09:15:23.431Z,19.27
2018-11-28T09:19:31.664Z,22.07
2018-11-28T09:23:39.902Z,19.87
2018-11-28T09:27:54.223Z,17.97
2018-11-28T09:32:02.408Z,18.40
2018-11-28T09:36:10.593Z,20.40
2018-11-28T09:40:22.169Z,19.33
2018-11-28T09:44:30.421Z,18.10
2018-11-28T09:48:38.624Z,19.63
2018-11-28T09:52:46.848Z,17.87
2018-11-28T09:56:56.715Z,23.83
2018-11-28T10:01:05.299Z,16.00
2018-11-28T10:05:14.815Z,15.57
2018-11-28T10:09:23.145Z,14.43
2018-11-28T10:13:31.410Z,17.27
2018-11-28T10:17:39.753Z,14.40
2018-11-28T10:21:47.853Z,17.73
2018-11-28T10:25:56.136Z,16.37
2018-11-28T10:30:05.250Z,16.83
2018-11-28T10:34:13.440Z,19.30
2018-11-28T10:38:21.872Z,19.43
2018-11-28T10:42:30.072Z,15.10
2018-11-28T10:46:38.256Z,16.10
2018-11-28T10:50:46.403Z,16.03
2018-11-28T10:54:54.569Z,12.50
2018-11-28T10:59:02.738Z,11.20
2018-11-28T11:03:16.338Z,16.97
2018-11-28T11:07:30.048Z,13.80
2018-11-28T11:11:43.732Z,13.20
2018-11-28T11:15:56.770Z,13.47
2018-11-28T11:20:05.345Z,14.40
2018-11-28T11:24:13.479Z,15.70
2018-11-28T11:28:21.647Z,16.00
2018-11-28T11:32:29.819Z,13.80
2018-11-28T11:36:37.983Z,11.77
2018-11-28T11:40:46.167Z,12.20
2018-11-28T11:44:54.372Z,22.20
2018-11-28T11:49:02.524Z,14.80
2018-11-28T11:53:10.724Z,36.00
2018-11-28T11:57:18.891Z,17.37
2018-11-28T12:01:27.068Z,17.37
2018-11-28T12:05:35.310Z,40.40
2018-11-28T12:09:43.452Z,23.80
2018-11-28T12:13:51.628Z,16.97
2018-11-28T12:17:59.795Z,21.20
2018-11-28T12:22:07.991Z,14.43
2018-11-28T12:26:16.200Z,16.30
2018-11-28T12:30:24.371Z,15.20
2018-11-28T12:34:32.573Z,17.47
2018-11-28T12:38:40.739Z,15.97
2018-11-28T12:42:51.343Z,15.67
2018-11-28T12:46:59.615Z,17.23
2018-11-28T12:51:07.861Z,19.03
2018-11-28T12:55:16.428Z,33.50
2018-11-28T12:59:24.623Z,21.23
2018-11-28T13:03:32.900Z,17.10
2018-11-28T13:07:41.079Z,16.60
2018-11-28T13:11:49.304Z,18.03
2018-11-28T13:15:57.481Z,16.87
2018-11-28T13:20:07.594Z,15.37
2018-11-28T13:24:15.771Z,16.07
2018-11-28T13:28:23.942Z,14.57
2018-11-28T13:32:32.099Z,15.10
2018-11-28T13:36:40.517Z,15.40
2018-11-28T13:40:48.765Z,13.97
2018-11-28T13:44:56.935Z,13.53
2018-11-28T13:49:05.403Z,14.93
2018-11-28T13:53:17.414Z,11.03
2018-11-28T13:57:25.668Z,15.53
2018-11-28T14:01:33.805Z,13.20
2018-11-28T14:05:42.046Z,12.50
2018-11-28T14:09:50.274Z,13.37
2018-11-28T14:13:58.459Z,14.50
2018-11-28T14:18:10.445Z,12.70
2018-11-28T14:22:18.648Z,15.50
2018-11-28T14:26:26.848Z,14.53
2018-11-28T14:30:35.373Z,10.70
2018-11-28T14:34:43.608Z,10.57
2018-11-28T14:38:51.823Z,12.97
2018-11-28T14:43:00.141Z,12.40
2018-11-28T14:47:08.339Z,12.77
2018-11-28T14:51:16.531Z,11.00
2018-11-28T14:55:27.852Z,11.03
2018-11-28T14:59:40.477Z,11.33
2018-11-28T15:03:44.250Z,10.57
2018-11-28T15:07:55.301Z,9.67
2018-11-28T15:12:11.487Z,10.83
2018-11-28T15:16:14.797Z,11.07
2018-11-28T15:20:23.035Z,9.00
2018-11-28T15:24:31.653Z,10.77
2018-11-28T15:28:40.515Z,11.10
2018-11-28T15:32:48.117Z,9.07
2018-11-28T15:36:56.331Z,11.63
2018-11-28T15:41:04.949Z,10.17
2018-11-28T15:45:13.238Z,11.10
2018-11-28T15:49:21.430Z,10.50
2018-11-28T15:53:30.570Z,11.90
2018-11-28T15:57:38.934Z,9.73
2018-11-28T16:01:47.134Z,11.93
2018-11-28T16:05:55.316Z,9.93
2018-11-28T16:10:09.301Z,10.60
2018-11-28T16:14:17.455Z,8.17
2018-11-28T16:18:25.635Z,7.27
2018-11-28T16:22:34.238Z,8.17
2018-11-28T16:26:42.548Z,7.30
2018-11-28T16:30:50.809Z,7.00
2018-11-28T16:34:59.915Z,10.47
2018-11-28T16:39:09.008Z,6.73
2018-11-28T16:43:17.204Z,9.90
2018-11-28T16:47:25.438Z,8.67
2018-11-28T16:51:33.587Z,7.60
2018-11-28T16:55:41.765Z,9.77
2018-11-28T16:59:49.921Z,11.20
2018-11-28T17:03:58.058Z,9.50
2018-11-28T17:08:07.783Z,10.70
2018-11-28T17:12:15.925Z,9.00
2018-11-28T17:16:24.074Z,10.30
2018-11-28T17:20:32.281Z,8.17
2018-11-28T17:24:40.424Z,7.43
2018-11-28T17:28:48.598Z,7.17
2018-11-28T17:32:56.797Z,9.10
2018-11-28T17:37:05.489Z,8.63
2018-11-28T17:41:13.649Z,10.37
2018-11-28T17:45:22.356Z,9.43
2018-11-28T17:49:30.508Z,8.90
2018-11-28T17:53:38.654Z,15.27
2018-11-28T17:57:46.785Z,20.30
2018-11-28T18:01:54.918Z,12.17
2018-11-28T18:06:03.070Z,12.20
2018-11-28T18:10:13.218Z,10.63
2018-11-28T18:14:21.318Z,9.03
2018-11-28T18:18:29.441Z,7.37
2018-11-28T18:22:37.557Z,6.60
2018-11-28T18:26:45.676Z,6.00
2018-11-28T18:30:53.786Z,6.20
2018-11-28T18:35:01.902Z,8.90
2018-11-28T18:39:10.019Z,5.40
2018-11-28T18:43:18.142Z,5.10
2018-11-28T18:47:26.296Z,6.63
2018-11-28T18:51:34.373Z,5.60
2018-11-28T18:55:42.484Z,4.93
2018-11-28T18:59:50.770Z,6.60
2018-11-28T19:03:58.906Z,5.27
2018-11-28T19:08:07.847Z,11.40
2018-11-28T19:12:15.985Z,19.80
2018-11-28T19:16:24.110Z,16.87
2018-11-28T19:20:32.238Z,6.13
2018-11-28T19:24:40.505Z,14.20
2018-11-28T19:28:48.626Z,7.30
2018-11-28T19:32:56.770Z,9.20
2018-11-28T19:37:04.929Z,6.63
2018-11-28T19:41:22.286Z,5.90
2018-11-28T19:45:30.425Z,5.37
2018-11-28T19:49:38.573Z,6.87
2018-11-28T19:53:46.701Z,5.83
2018-11-28T19:57:54.884Z,5.67
2018-11-28T20:02:03.022Z,7.17
2018-11-28T20:06:11.152Z,6.80
2018-11-28T20:10:20.222Z,6.80
2018-11-28T20:14:28.375Z,7.77
2018-11-28T20:18:36.512Z,6.60
2018-11-28T20:22:44.646Z,7.17
2018-11-28T20:26:52.769Z,7.97
2018-11-28T20:31:00.897Z,8.30
2018-11-28T20:35:09.950Z,9.23
2018-11-28T20:39:18.062Z,8.83
2018-11-28T20:43:26.211Z,10.47
2018-11-28T20:47:34.338Z,9.80
2018-11-28T20:51:42.464Z,9.13
2018-11-28T20:55:50.603Z,9.60
2018-11-28T20:59:58.776Z,18.17
2018-11-28T21:04:06.857Z,9.20
2018-11-28T21:08:14.977Z,9.50
2018-11-28T21:12:23.134Z,12.33
2018-11-28T21:16:31.273Z,9.20
2018-11-28T21:20:40.549Z,10.53
2018-11-28T21:24:48.677Z,9.20
2018-11-28T21:28:56.792Z,8.63
2018-11-28T21:33:05.292Z,7.80
2018-11-28T21:37:13.422Z,7.97
2018-11-28T21:41:21.554Z,10.80
2018-11-28T21:45:29.727Z,9.13
2018-11-28T21:49:37.837Z,12.13
2018-11-28T21:53:45.978Z,11.23
2018-11-28T21:57:54.109Z,14.17
2018-11-28T22:02:02.238Z,16.50
2018-11-28T22:06:10.361Z,15.50
2018-11-28T22:10:25.945Z,9.80
2018-11-28T22:14:34.076Z,9.90
2018-11-28T22:18:42.198Z,11.60
2018-11-28T22:22:50.343Z,11.30
2018-11-28T22:26:58.477Z,19.00
2018-11-28T22:31:06.626Z,10.77
2018-11-28T22:35:14.765Z,11.30
2018-11-28T22:39:22.909Z,9.97
2018-11-28T22:43:31.047Z,12.53
2018-11-28T22:47:39.180Z,16.90
2018-11-28T22:51:47.317Z,16.90
2018-11-28T22:55:55.463Z,14.00
2018-11-28T23:00:04.440Z,9.77
2018-11-28T23:04:12.589Z,20.53
2018-11-28T23:08:21.590Z,12.77
2018-11-28T23:12:29.734Z,8.20
2018-11-28T23:16:37.886Z,8.93
2018-11-28T23:20:46.025Z,7.80
2018-11-28T23:24:54.169Z,10.23
2018-11-28T23:29:02.309Z,8.23
2018-11-28T23:33:10.486Z,8.00
2018-11-28T23:37:18.622Z,7.67
2018-11-28T23:41:26.780Z,13.43
2018-11-28T23:45:34.976Z,8.07
2018-11-28T23:49:43.073Z,9.33
2018-11-28T23:53:51.299Z,6.77
2018-11-28T23:57:59.430Z,7.63
